sensor_id;sensor_type;location;lat;lon;timestamp;pressure;altitude;pressure_sealevel;temperature;humidity
36192;BME280;22233;42.708;23.360;2023-01-20T00:00:59;94506.53;;;9.91;79.80
36192;BME280;22233;42.708;23.360;2023-01-20T00:03:24;94502.75;;;10.05;78.22
36192;BME280;22233;42.708;23.360;2023-01-20T00:05:50;94494.22;;;10.15;76.71
36192;BME280;22233;42.708;23.360;2023-01-20T00:08:16;94521.25;;;10.24;75.79
36192;BME280;22233;42.708;23.360;2023-01-20T00:10:42;94544.50;;;9.91;76.79
36192;BME280;22233;42.708;23.360;2023-01-20T00:13:07;94529.81;;;9.92;77.52
36192;BME280;22233;42.708;23.360;2023-01-20T00:15:32;94510.00;;;9.71;79.99
36192;BME280;22233;42.708;23.360;2023-01-20T00:17:58;94509.75;;;10.06;79.52
36192;BME280;22233;42.708;23.360;2023-01-20T00:20:24;94527.28;;;10.29;78.01
36192;BME280;22233;42.708;23.360;2023-01-20T00:22:49;94483.63;;;10.01;78.81
36192;BME280;22233;42.708;23.360;2023-01-20T00:25:14;94365.78;;;9.90;79.06
36192;BME280;22233;42.708;23.360;2023-01-20T00:27:40;94313.38;;;9.65;79.34
36192;BME280;22233;42.708;23.360;2023-01-20T00:30:06;94300.72;;;9.35;79.98
36192;BME280;22233;42.708;23.360;2023-01-20T00:32:36;94350.13;;;8.90;81.25
36192;BME280;22233;42.708;23.360;2023-01-20T00:35:01;94342.75;;;8.99;80.56
36192;BME280;22233;42.708;23.360;2023-01-20T00:37:27;94344.72;;;9.11;80.41
36192;BME280;22233;42.708;23.360;2023-01-20T00:39:52;94347.38;;;8.99;80.24
36192;BME280;22233;42.708;23.360;2023-01-20T00:42:18;94329.97;;;8.79;79.18
36192;BME280;22233;42.708;23.360;2023-01-20T00:44:43;94326.44;;;9.08;78.11
36192;BME280;22233;42.708;23.360;2023-01-20T00:47:08;94340.38;;;9.19;78.95
36192;BME280;22233;42.708;23.360;2023-01-20T00:49:34;94321.56;;;9.23;77.89
36192;BME280;22233;42.708;23.360;2023-01-20T00:51:59;94330.47;;;9.44;76.71
36192;BME280;22233;42.708;23.360;2023-01-20T00:54:24;94353.81;;;9.36;77.27
36192;BME280;22233;42.708;23.360;2023-01-20T00:56:50;94355.78;;;9.48;76.78
36192;BME280;22233;42.708;23.360;2023-01-20T00:59:15;94326.16;;;9.43;76.64
36192;BME280;22233;42.708;23.360;2023-01-20T01:01:40;94338.47;;;9.40;76.96
36192;BME280;22233;42.708;23.360;2023-01-20T01:04:06;94348.81;;;9.59;76.78
36192;BME280;22233;42.708;23.360;2023-01-20T01:06:31;94340.44;;;9.52;76.54
36192;BME280;22233;42.708;23.360;2023-01-20T01:08:57;94340.50;;;9.65;75.53
36192;BME280;22233;42.708;23.360;2023-01-20T01:11:24;94336.81;;;9.82;75.14
36192;BME280;22233;42.708;23.360;2023-01-20T01:13:49;94329.28;;;9.54;74.65
36192;BME280;22233;42.708;23.360;2023-01-20T01:16:15;94323.56;;;9.68;74.55
36192;BME280;22233;42.708;23.360;2023-01-20T01:18:41;94319.34;;;9.58;74.83
36192;BME280;22233;42.708;23.360;2023-01-20T01:21:12;94330.72;;;9.72;73.52
36192;BME280;22233;42.708;23.360;2023-01-20T01:23:38;94308.16;;;9.93;73.31
36192;BME280;22233;42.708;23.360;2023-01-20T01:26:03;94328.97;;;10.01;72.40
36192;BME280;22233;42.708;23.360;2023-01-20T01:28:29;94318.47;;;10.12;72.48
36192;BME280;22233;42.708;23.360;2023-01-20T01:30:54;94311.69;;;10.18;72.83
36192;BME280;22233;42.708;23.360;2023-01-20T01:33:23;94297.09;;;9.98;72.96
36192;BME280;22233;42.708;23.360;2023-01-20T01:35:59;94298.94;;;10.18;71.76
36192;BME280;22233;42.708;23.360;2023-01-20T01:38:25;94291.78;;;10.14;72.08
36192;BME280;22233;42.708;23.360;2023-01-20T01:40:53;94263.53;;;10.15;71.27
36192;BME280;22233;42.708;23.360;2023-01-20T01:43:27;94287.25;;;9.93;72.25
36192;BME280;22233;42.708;23.360;2023-01-20T01:45:53;94280.00;;;9.85;73.15
36192;BME280;22233;42.708;23.360;2023-01-20T01:48:25;94289.88;;;10.02;71.46
36192;BME280;22233;42.708;23.360;2023-01-20T01:50:56;94294.75;;;10.09;71.35
36192;BME280;22233;42.708;23.360;2023-01-20T01:53:24;94301.94;;;9.92;72.29
36192;BME280;22233;42.708;23.360;2023-01-20T01:55:57;94297.22;;;9.56;74.08
36192;BME280;22233;42.708;23.360;2023-01-20T01:58:28;94304.09;;;9.66;74.20
36192;BME280;22233;42.708;23.360;2023-01-20T02:00:55;94307.28;;;9.68;74.20
36192;BME280;22233;42.708;23.360;2023-01-20T02:03:20;94303.81;;;9.79;73.60
36192;BME280;22233;42.708;23.360;2023-01-20T02:05:48;94305.38;;;9.68;74.35
36192;BME280;22233;42.708;23.360;2023-01-20T02:08:14;94306.75;;;9.74;74.44
36192;BME280;22233;42.708;23.360;2023-01-20T02:10:40;94302.66;;;9.68;74.12
36192;BME280;22233;42.708;23.360;2023-01-20T02:13:05;94287.75;;;9.62;74.57
36192;BME280;22233;42.708;23.360;2023-01-20T02:15:45;94271.13;;;9.64;74.75
36192;BME280;22233;42.708;23.360;2023-01-20T02:21:02;94271.84;;;9.73;74.58
36192;BME280;22233;42.708;23.360;2023-01-20T02:27:08;94247.88;;;9.42;75.10
36192;BME280;22233;42.708;23.360;2023-01-20T02:29:42;94261.34;;;9.38;75.33
36192;BME280;22233;42.708;23.360;2023-01-20T02:32:37;94265.44;;;9.44;74.71
36192;BME280;22233;42.708;23.360;2023-01-20T02:35:11;94246.44;;;8.90;76.58
36192;BME280;22233;42.708;23.360;2023-01-20T02:37:54;94248.41;;;9.02;75.72
36192;BME280;22233;42.708;23.360;2023-01-20T02:40:46;94236.09;;;9.25;75.10
36192;BME280;22233;42.708;23.360;2023-01-20T02:46:31;94210.69;;;8.96;75.80
36192;BME280;22233;42.708;23.360;2023-01-20T02:49:08;94223.69;;;9.24;75.07
36192;BME280;22233;42.708;23.360;2023-01-20T02:51:46;94212.31;;;9.43;74.32
36192;BME280;22233;42.708;23.360;2023-01-20T02:54:15;94222.03;;;9.32;74.71
36192;BME280;22233;42.708;23.360;2023-01-20T02:56:42;94208.72;;;9.51;73.10
36192;BME280;22233;42.708;23.360;2023-01-20T02:59:14;94219.72;;;9.67;72.92
36192;BME280;22233;42.708;23.360;2023-01-20T03:01:53;94216.56;;;8.98;75.99
36192;BME280;22233;42.708;23.360;2023-01-20T03:04:29;94201.97;;;8.91;75.55
36192;BME280;22233;42.708;23.360;2023-01-20T03:06:58;94209.16;;;9.08;75.25
36192;BME280;22233;42.708;23.360;2023-01-20T03:09:29;94212.44;;;9.47;74.28
36192;BME280;22233;42.708;23.360;2023-01-20T03:12:02;94209.41;;;9.15;74.98
36192;BME280;22233;42.708;23.360;2023-01-20T03:14:29;94214.69;;;9.11;75.85
36192;BME280;22233;42.708;23.360;2023-01-20T03:16:54;94215.91;;;9.35;74.40
36192;BME280;22233;42.708;23.360;2023-01-20T03:19:20;94206.78;;;9.39;74.76
36192;BME280;22233;42.708;23.360;2023-01-20T03:21:46;94189.69;;;9.27;75.37
36192;BME280;22233;42.708;23.360;2023-01-20T03:24:11;94207.16;;;9.17;75.80
36192;BME280;22233;42.708;23.360;2023-01-20T03:26:37;94215.47;;;9.33;75.04
36192;BME280;22233;42.708;23.360;2023-01-20T03:29:08;94201.78;;;9.29;75.19
36192;BME280;22233;42.708;23.360;2023-01-20T03:31:38;94213.44;;;9.30;76.21
36192;BME280;22233;42.708;23.360;2023-01-20T03:34:08;94219.97;;;9.29;75.87
36192;BME280;22233;42.708;23.360;2023-01-20T03:36:38;94196.88;;;9.10;76.59
36192;BME280;22233;42.708;23.360;2023-01-20T03:39:04;94231.28;;;9.43;76.24
36192;BME280;22233;42.708;23.360;2023-01-20T03:44:16;94220.09;;;9.32;77.13
36192;BME280;22233;42.708;23.360;2023-01-20T03:46:51;94230.84;;;9.41;76.91
36192;BME280;22233;42.708;23.360;2023-01-20T03:49:28;94205.72;;;9.19;77.23
36192;BME280;22233;42.708;23.360;2023-01-20T03:52:06;94219.59;;;8.97;79.02
36192;BME280;22233;42.708;23.360;2023-01-20T03:54:38;94198.75;;;8.97;79.29
36192;BME280;22233;42.708;23.360;2023-01-20T03:57:11;94207.75;;;9.23;78.77
36192;BME280;22233;42.708;23.360;2023-01-20T03:59:40;94204.25;;;9.22;78.96
36192;BME280;22233;42.708;23.360;2023-01-20T04:02:07;94188.63;;;9.40;78.59
36192;BME280;22233;42.708;23.360;2023-01-20T04:04:38;94196.31;;;9.50;78.50
36192;BME280;22233;42.708;23.360;2023-01-20T04:07:05;94191.13;;;9.57;77.84
36192;BME280;22233;42.708;23.360;2023-01-20T04:09:34;94170.91;;;9.55;78.28
36192;BME280;22233;42.708;23.360;2023-01-20T04:12:03;94185.03;;;9.60;77.66
36192;BME280;22233;42.708;23.360;2023-01-20T04:14:28;94180.19;;;9.66;77.50
36192;BME280;22233;42.708;23.360;2023-01-20T04:16:55;94181.56;;;9.85;77.10
36192;BME280;22233;42.708;23.360;2023-01-20T04:19:22;94158.38;;;9.63;77.35
36192;BME280;22233;42.708;23.360;2023-01-20T04:21:52;94172.75;;;9.88;77.02
36192;BME280;22233;42.708;23.360;2023-01-20T04:24:30;94157.72;;;9.78;77.49
36192;BME280;22233;42.708;23.360;2023-01-20T04:26:57;94158.19;;;9.80;77.80
36192;BME280;22233;42.708;23.360;2023-01-20T04:29:23;94145.72;;;9.91;76.91
36192;BME280;22233;42.708;23.360;2023-01-20T04:31:48;94149.69;;;9.94;76.48
36192;BME280;22233;42.708;23.360;2023-01-20T04:34:15;94147.53;;;9.87;76.85
36192;BME280;22233;42.708;23.360;2023-01-20T04:36:41;94145.84;;;9.95;76.66
36192;BME280;22233;42.708;23.360;2023-01-20T04:39:07;94155.78;;;10.15;76.03
36192;BME280;22233;42.708;23.360;2023-01-20T04:41:32;94127.88;;;9.90;76.60
36192;BME280;22233;42.708;23.360;2023-01-20T04:43:58;94140.19;;;10.25;75.61
36192;BME280;22233;42.708;23.360;2023-01-20T04:46:23;94124.56;;;10.22;75.54
36192;BME280;22233;42.708;23.360;2023-01-20T04:48:49;94137.38;;;10.09;76.05
36192;BME280;22233;42.708;23.360;2023-01-20T04:51:14;94142.00;;;10.20;76.05
36192;BME280;22233;42.708;23.360;2023-01-20T04:53:39;94150.03;;;10.17;75.89
36192;BME280;22233;42.708;23.360;2023-01-20T04:56:14;94146.38;;;10.25;75.63
36192;BME280;22233;42.708;23.360;2023-01-20T04:58:41;94154.53;;;10.37;74.96
36192;BME280;22233;42.708;23.360;2023-01-20T05:01:07;94153.97;;;10.19;75.12
36192;BME280;22233;42.708;23.360;2023-01-20T05:03:33;94154.31;;;10.06;75.75
36192;BME280;22233;42.708;23.360;2023-01-20T05:05:58;94153.66;;;9.72;77.33
36192;BME280;22233;42.708;23.360;2023-01-20T05:08:24;94186.19;;;9.72;76.81
36192;BME280;22233;42.708;23.360;2023-01-20T05:10:49;94186.84;;;9.56;77.36
36192;BME280;22233;42.708;23.360;2023-01-20T05:13:15;94200.09;;;9.83;76.91
36192;BME280;22233;42.708;23.360;2023-01-20T05:15:42;94183.09;;;9.49;77.97
36192;BME280;22233;42.708;23.360;2023-01-20T05:18:07;94175.22;;;9.68;77.39
36192;BME280;22233;42.708;23.360;2023-01-20T05:20:33;94195.91;;;10.10;76.85
36192;BME280;22233;42.708;23.360;2023-01-20T05:22:58;94161.22;;;10.03;76.08
36192;BME280;22233;42.708;23.360;2023-01-20T05:25:24;94179.19;;;10.20;76.70
36192;BME280;22233;42.708;23.360;2023-01-20T05:27:49;94180.00;;;10.33;76.24
36192;BME280;22233;42.708;23.360;2023-01-20T05:30:15;94187.00;;;10.22;76.81
36192;BME280;22233;42.708;23.360;2023-01-20T05:32:40;94191.53;;;10.30;76.12
36192;BME280;22233;42.708;23.360;2023-01-20T05:35:06;94211.09;;;10.35;76.31
36192;BME280;22233;42.708;23.360;2023-01-20T05:37:32;94216.63;;;10.14;77.03
36192;BME280;22233;42.708;23.360;2023-01-20T05:39:57;94216.25;;;9.91;78.29
36192;BME280;22233;42.708;23.360;2023-01-20T05:42:23;94210.38;;;10.02;78.35
36192;BME280;22233;42.708;23.360;2023-01-20T05:44:48;94204.19;;;10.38;76.22
36192;BME280;22233;42.708;23.360;2023-01-20T05:47:14;94206.69;;;10.31;76.57
36192;BME280;22233;42.708;23.360;2023-01-20T05:49:39;94217.22;;;10.32;76.01
36192;BME280;22233;42.708;23.360;2023-01-20T05:52:05;94199.88;;;10.25;77.36
36192;BME280;22233;42.708;23.360;2023-01-20T05:54:30;94200.56;;;10.46;76.57
36192;BME280;22233;42.708;23.360;2023-01-20T05:56:55;94193.00;;;10.15;77.42
36192;BME280;22233;42.708;23.360;2023-01-20T05:59:22;94199.88;;;10.49;76.83
36192;BME280;22233;42.708;23.360;2023-01-20T06:01:47;94186.19;;;10.46;77.38
36192;BME280;22233;42.708;23.360;2023-01-20T06:04:13;94182.13;;;10.39;78.58
36192;BME280;22233;42.708;23.360;2023-01-20T06:06:38;94187.97;;;10.66;76.53
36192;BME280;22233;42.708;23.360;2023-01-20T06:09:04;94192.34;;;10.83;75.73
36192;BME280;22233;42.708;23.360;2023-01-20T06:11:30;94205.59;;;10.85;76.17
36192;BME280;22233;42.708;23.360;2023-01-20T06:13:56;94215.44;;;10.89;75.05
36192;BME280;22233;42.708;23.360;2023-01-20T06:16:21;94220.94;;;11.05;75.24
36192;BME280;22233;42.708;23.360;2023-01-20T06:18:47;94203.75;;;11.01;75.64
36192;BME280;22233;42.708;23.360;2023-01-20T06:21:12;94217.50;;;11.08;75.63
36192;BME280;22233;42.708;23.360;2023-01-20T06:23:37;94216.66;;;10.92;75.79
36192;BME280;22233;42.708;23.360;2023-01-20T06:26:05;94220.97;;;10.93;75.59
36192;BME280;22233;42.708;23.360;2023-01-20T06:28:30;94226.03;;;10.94;76.16
36192;BME280;22233;42.708;23.360;2023-01-20T06:31:06;94204.03;;;10.71;76.59
36192;BME280;22233;42.708;23.360;2023-01-20T06:33:32;94232.50;;;10.90;76.20
36192;BME280;22233;42.708;23.360;2023-01-20T06:35:58;94209.88;;;10.86;76.76
36192;BME280;22233;42.708;23.360;2023-01-20T06:38:25;94176.84;;;10.84;76.91
36192;BME280;22233;42.708;23.360;2023-01-20T06:43:23;94163.28;;;10.31;78.14
36192;BME280;22233;42.708;23.360;2023-01-20T06:45:49;94183.16;;;10.10;78.80
36192;BME280;22233;42.708;23.360;2023-01-20T06:48:14;94153.66;;;10.33;78.50
36192;BME280;22233;42.708;23.360;2023-01-20T06:50:39;94186.66;;;9.98;79.59
36192;BME280;22233;42.708;23.360;2023-01-20T06:53:05;94189.81;;;10.00;78.85
36192;BME280;22233;42.708;23.360;2023-01-20T06:55:30;94184.16;;;10.06;79.00
36192;BME280;22233;42.708;23.360;2023-01-20T06:57:56;94181.81;;;10.16;78.93
36192;BME280;22233;42.708;23.360;2023-01-20T07:00:22;94152.41;;;9.94;79.53
36192;BME280;22233;42.708;23.360;2023-01-20T07:02:47;94186.41;;;9.67;80.16
36192;BME280;22233;42.708;23.360;2023-01-20T07:05:13;94180.38;;;9.49;80.44
36192;BME280;22233;42.708;23.360;2023-01-20T07:07:39;94188.59;;;10.10;78.42
36192;BME280;22233;42.708;23.360;2023-01-20T07:10:08;94165.84;;;10.15;78.48
36192;BME280;22233;42.708;23.360;2023-01-20T07:12:33;94156.00;;;10.23;77.53
36192;BME280;22233;42.708;23.360;2023-01-20T07:14:59;94167.91;;;10.43;76.82
36192;BME280;22233;42.708;23.360;2023-01-20T07:17:24;94176.13;;;10.46;76.42
36192;BME280;22233;42.708;23.360;2023-01-20T07:19:49;94171.41;;;10.43;77.23
36192;BME280;22233;42.708;23.360;2023-01-20T07:22:15;94172.19;;;10.31;78.64
36192;BME280;22233;42.708;23.360;2023-01-20T07:24:40;94178.50;;;10.88;85.93
36192;BME280;22233;42.708;23.360;2023-01-20T07:27:05;94172.75;;;10.90;76.27
36192;BME280;22233;42.708;23.360;2023-01-20T07:29:31;94164.41;;;10.83;76.21
36192;BME280;22233;42.708;23.360;2023-01-20T07:31:56;94171.25;;;10.27;77.44
36192;BME280;22233;42.708;23.360;2023-01-20T07:34:21;94184.56;;;10.69;75.70
36192;BME280;22233;42.708;23.360;2023-01-20T07:37:02;94182.28;;;10.84;76.29
36192;BME280;22233;42.708;23.360;2023-01-20T07:39:27;94161.13;;;10.36;77.32
36192;BME280;22233;42.708;23.360;2023-01-20T07:41:53;94163.56;;;10.54;76.54
36192;BME280;22233;42.708;23.360;2023-01-20T07:44:18;94158.13;;;10.54;76.91
36192;BME280;22233;42.708;23.360;2023-01-20T07:46:43;94180.97;;;10.65;76.38
36192;BME280;22233;42.708;23.360;2023-01-20T07:49:09;94162.44;;;10.55;75.91
36192;BME280;22233;42.708;23.360;2023-01-20T07:51:35;94166.88;;;10.88;77.13
36192;BME280;22233;42.708;23.360;2023-01-20T07:54:00;94160.16;;;10.97;75.71
36192;BME280;22233;42.708;23.360;2023-01-20T07:56:28;94166.72;;;10.96;75.63
36192;BME280;22233;42.708;23.360;2023-01-20T07:58:54;94185.53;;;10.89;74.79
36192;BME280;22233;42.708;23.360;2023-01-20T08:01:25;94182.72;;;10.86;75.82
36192;BME280;22233;42.708;23.360;2023-01-20T08:03:51;94167.34;;;10.77;76.28
36192;BME280;22233;42.708;23.360;2023-01-20T08:06:20;94162.97;;;10.73;76.16
36192;BME280;22233;42.708;23.360;2023-01-20T08:08:45;94179.84;;;10.54;76.91
36192;BME280;22233;42.708;23.360;2023-01-20T08:11:13;94168.78;;;10.47;76.76
36192;BME280;22233;42.708;23.360;2023-01-20T08:13:39;94140.75;;;10.43;76.28
36192;BME280;22233;42.708;23.360;2023-01-20T08:16:06;94127.16;;;10.18;78.21
36192;BME280;22233;42.708;23.360;2023-01-20T08:18:32;94080.75;;;9.95;78.38
36192;BME280;22233;42.708;23.360;2023-01-20T08:20:59;94083.13;;;9.96;78.35
36192;BME280;22233;42.708;23.360;2023-01-20T08:23:24;94076.81;;;9.92;78.48
36192;BME280;22233;42.708;23.360;2023-01-20T08:25:56;94093.75;;;9.89;78.64
36192;BME280;22233;42.708;23.360;2023-01-20T08:28:24;94113.66;;;9.69;78.73
36192;BME280;22233;42.708;23.360;2023-01-20T08:30:50;94125.19;;;9.90;78.35
36192;BME280;22233;42.708;23.360;2023-01-20T08:33:15;94108.66;;;9.83;77.86
36192;BME280;22233;42.708;23.360;2023-01-20T08:35:41;94124.38;;;10.02;78.57
36192;BME280;22233;42.708;23.360;2023-01-20T08:38:06;94115.91;;;9.67;79.25
36192;BME280;22233;42.708;23.360;2023-01-20T08:40:33;94076.03;;;9.55;79.61
36192;BME280;22233;42.708;23.360;2023-01-20T08:42:58;94105.97;;;9.71;79.57
36192;BME280;22233;42.708;23.360;2023-01-20T08:45:24;94080.50;;;9.88;78.85
36192;BME280;22233;42.708;23.360;2023-01-20T08:47:49;94087.66;;;9.80;78.86
36192;BME280;22233;42.708;23.360;2023-01-20T08:50:15;94085.38;;;9.94;79.49
36192;BME280;22233;42.708;23.360;2023-01-20T08:52:42;94077.88;;;10.16;78.54
36192;BME280;22233;42.708;23.360;2023-01-20T08:55:08;94085.00;;;10.20;77.64
36192;BME280;22233;42.708;23.360;2023-01-20T08:57:34;94070.22;;;9.93;78.57
36192;BME280;22233;42.708;23.360;2023-01-20T08:59:59;94072.75;;;9.86;78.64
36192;BME280;22233;42.708;23.360;2023-01-20T09:02:25;94053.97;;;9.81;78.49
36192;BME280;22233;42.708;23.360;2023-01-20T09:04:51;94070.91;;;10.03;77.97
36192;BME280;22233;42.708;23.360;2023-01-20T09:07:18;94052.25;;;10.01;77.48
36192;BME280;22233;42.708;23.360;2023-01-20T09:09:44;94073.88;;;9.73;77.95
36192;BME280;22233;42.708;23.360;2023-01-20T09:12:10;94063.00;;;9.85;77.34
36192;BME280;22233;42.708;23.360;2023-01-20T09:14:35;94063.03;;;9.73;77.57
36192;BME280;22233;42.708;23.360;2023-01-20T09:17:00;94038.50;;;9.69;76.46
36192;BME280;22233;42.708;23.360;2023-01-20T09:19:27;94062.22;;;9.85;76.40
36192;BME280;22233;42.708;23.360;2023-01-20T09:21:53;94065.97;;;9.80;75.36
36192;BME280;22233;42.708;23.360;2023-01-20T09:24:19;94074.53;;;9.70;76.38
36192;BME280;22233;42.708;23.360;2023-01-20T09:26:44;94078.94;;;9.87;76.62
36192;BME280;22233;42.708;23.360;2023-01-20T09:29:13;94071.28;;;9.76;76.49
36192;BME280;22233;42.708;23.360;2023-01-20T09:31:47;94058.97;;;9.67;77.05
36192;BME280;22233;42.708;23.360;2023-01-20T09:34:14;94045.41;;;9.67;76.51
36192;BME280;22233;42.708;23.360;2023-01-20T09:36:56;94036.50;;;9.54;77.04
36192;BME280;22233;42.708;23.360;2023-01-20T09:39:23;94039.09;;;9.63;76.48
36192;BME280;22233;42.708;23.360;2023-01-20T09:45:15;94012.88;;;9.54;77.15
36192;BME280;22233;42.708;23.360;2023-01-20T09:47:49;94025.19;;;9.64;77.50
36192;BME280;22233;42.708;23.360;2023-01-20T09:50:16;94041.44;;;9.89;75.46
36192;BME280;22233;42.708;23.360;2023-01-20T09:55:53;94030.00;;;9.95;76.47
36192;BME280;22233;42.708;23.360;2023-01-20T09:58:35;94032.84;;;10.39;74.54
36192;BME280;22233;42.708;23.360;2023-01-20T10:01:14;94006.00;;;10.50;73.98
36192;BME280;22233;42.708;23.360;2023-01-20T10:06:39;94011.94;;;10.56;74.31
36192;BME280;22233;42.708;23.360;2023-01-20T10:11:43;94025.88;;;10.98;72.46
36192;BME280;22233;42.708;23.360;2023-01-20T10:19:55;93976.09;;;11.26;71.46
36192;BME280;22233;42.708;23.360;2023-01-20T10:22:44;93973.88;;;11.32;70.72
36192;BME280;22233;42.708;23.360;2023-01-20T10:25:16;93973.03;;;11.28;71.49
36192;BME280;22233;42.708;23.360;2023-01-20T10:27:51;93981.91;;;11.60;70.53
36192;BME280;22233;42.708;23.360;2023-01-20T10:30:18;93992.22;;;11.86;67.70
36192;BME280;22233;42.708;23.360;2023-01-20T10:35:25;93987.69;;;12.10;66.74
36192;BME280;22233;42.708;23.360;2023-01-20T10:37:52;93989.69;;;12.13;68.09
36192;BME280;22233;42.708;23.360;2023-01-20T10:40:52;93995.09;;;12.09;67.08
36192;BME280;22233;42.708;23.360;2023-01-20T10:43:19;93969.41;;;12.10;67.38
36192;BME280;22233;42.708;23.360;2023-01-20T10:46:00;93975.06;;;12.21;67.91
36192;BME280;22233;42.708;23.360;2023-01-20T10:56:48;93981.66;;;12.01;67.47
36192;BME280;22233;42.708;23.360;2023-01-20T10:59:26;93995.72;;;12.22;67.93
36192;BME280;22233;42.708;23.360;2023-01-20T11:01:55;93988.41;;;12.07;67.19
36192;BME280;22233;42.708;23.360;2023-01-20T11:04:27;93984.13;;;12.06;66.38
36192;BME280;22233;42.708;23.360;2023-01-20T11:06:57;93972.34;;;12.21;65.55
36192;BME280;22233;42.708;23.360;2023-01-20T11:09:34;93966.50;;;11.99;66.21
36192;BME280;22233;42.708;23.360;2023-01-20T11:12:03;93982.47;;;12.21;65.83
36192;BME280;22233;42.708;23.360;2023-01-20T11:14:31;93973.09;;;12.18;65.19
36192;BME280;22233;42.708;23.360;2023-01-20T11:17:05;93987.84;;;11.97;65.97
36192;BME280;22233;42.708;23.360;2023-01-20T11:20:03;93998.06;;;12.04;67.11
36192;BME280;22233;42.708;23.360;2023-01-20T11:22:32;93987.09;;;12.01;66.89
36192;BME280;22233;42.708;23.360;2023-01-20T11:24:59;93991.13;;;12.26;66.00
36192;BME280;22233;42.708;23.360;2023-01-20T11:27:40;93998.94;;;12.28;66.92
36192;BME280;22233;42.708;23.360;2023-01-20T11:30:28;93995.28;;;11.85;67.72
36192;BME280;22233;42.708;23.360;2023-01-20T11:33:18;94003.53;;;11.05;71.29
36192;BME280;22233;42.708;23.360;2023-01-20T11:36:05;94004.88;;;10.67;73.79
36192;BME280;22233;42.708;23.360;2023-01-20T11:38:45;93997.00;;;10.78;75.13
36192;BME280;22233;42.708;23.360;2023-01-20T11:43:52;94004.50;;;10.53;76.18
36192;BME280;22233;42.708;23.360;2023-01-20T11:46:28;94006.75;;;10.79;75.63
36192;BME280;22233;42.708;23.360;2023-01-20T11:51:31;94016.97;;;10.70;76.10
36192;BME280;22233;42.708;23.360;2023-01-20T11:54:07;94015.91;;;10.18;69.93
36192;BME280;22233;42.708;23.360;2023-01-20T11:56:40;94013.97;;;9.66;71.15
36192;BME280;22233;42.708;23.360;2023-01-20T11:59:18;94023.72;;;9.67;68.31
36192;BME280;22233;42.708;23.360;2023-01-20T12:01:54;94032.75;;;9.58;70.38
36192;BME280;22233;42.708;23.360;2023-01-20T12:07:14;94028.31;;;8.92;70.96
36192;BME280;22233;42.708;23.360;2023-01-20T12:09:48;94011.41;;;8.50;72.40
36192;BME280;22233;42.708;23.360;2023-01-20T12:12:26;94019.66;;;8.32;73.38
36192;BME280;22233;42.708;23.360;2023-01-20T12:15:14;94023.00;;;8.17;71.85
36192;BME280;22233;42.708;23.360;2023-01-20T12:17:47;94024.03;;;8.04;72.45
36192;BME280;22233;42.708;23.360;2023-01-20T12:20:27;94033.78;;;7.96;73.91
36192;BME280;22233;42.708;23.360;2023-01-20T12:23:06;94036.13;;;7.26;76.71
36192;BME280;22233;42.708;23.360;2023-01-20T12:26:02;94046.38;;;7.41;75.06
36192;BME280;22233;42.708;23.360;2023-01-20T12:28:37;94053.72;;;7.32;76.86
36192;BME280;22233;42.708;23.360;2023-01-20T12:31:14;94075.28;;;7.02;78.54
36192;BME280;22233;42.708;23.360;2023-01-20T12:33:46;94061.19;;;6.96;78.34
36192;BME280;22233;42.708;23.360;2023-01-20T12:42:01;94122.72;;;6.38;77.24
36192;BME280;22233;42.708;23.360;2023-01-20T12:50:49;94160.88;;;5.48;78.96
36192;BME280;22233;42.708;23.360;2023-01-20T13:14:22;94179.47;;;4.51;82.34
36192;BME280;22233;42.708;23.360;2023-01-20T13:16:55;94184.78;;;4.65;82.05
36192;BME280;22233;42.708;23.360;2023-01-20T13:19:29;94178.66;;;4.50;82.39
36192;BME280;22233;42.708;23.360;2023-01-20T13:22:07;94169.75;;;4.05;83.38
36192;BME280;22233;42.708;23.360;2023-01-20T13:24:34;94177.38;;;4.11;84.55
36192;BME280;22233;42.708;23.360;2023-01-20T13:27:00;94163.34;;;4.14;84.36
36192;BME280;22233;42.708;23.360;2023-01-20T13:32:01;94163.66;;;4.13;85.57
36192;BME280;22233;42.708;23.360;2023-01-20T13:34:29;94188.72;;;4.45;85.09
36192;BME280;22233;42.708;23.360;2023-01-20T13:39:42;94171.50;;;4.23;84.08
36192;BME280;22233;42.708;23.360;2023-01-20T13:45:14;94180.47;;;4.55;83.59
36192;BME280;22233;42.708;23.360;2023-01-20T13:57:54;94223.69;;;4.81;83.06
36192;BME280;22233;42.708;23.360;2023-01-20T14:00:19;94239.59;;;4.91;82.49
36192;BME280;22233;42.708;23.360;2023-01-20T14:02:47;94226.56;;;4.85;81.01
36192;BME280;22233;42.708;23.360;2023-01-20T14:05:29;94241.34;;;4.51;82.76
36192;BME280;22233;42.708;23.360;2023-01-20T14:07:55;94235.38;;;4.40;82.32
36192;BME280;22233;42.708;23.360;2023-01-20T14:10:21;94243.59;;;4.57;82.41
36192;BME280;22233;42.708;23.360;2023-01-20T14:12:47;94248.47;;;4.92;81.00
36192;BME280;22233;42.708;23.360;2023-01-20T14:15:23;94264.34;;;4.79;80.81
36192;BME280;22233;42.708;23.360;2023-01-20T14:17:54;94250.66;;;4.90;81.12
36192;BME280;22233;42.708;23.360;2023-01-20T14:20:22;94260.97;;;5.19;80.10
36192;BME280;22233;42.708;23.360;2023-01-20T14:22:48;94273.16;;;5.39;78.11
36192;BME280;22233;42.708;23.360;2023-01-20T14:25:25;94261.84;;;5.28;80.15
36192;BME280;22233;42.708;23.360;2023-01-20T14:27:51;94250.41;;;5.23;79.69
36192;BME280;22233;42.708;23.360;2023-01-20T14:32:43;94238.56;;;5.01;79.42
36192;BME280;22233;42.708;23.360;2023-01-20T14:35:14;94256.03;;;4.90;80.33
36192;BME280;22233;42.708;23.360;2023-01-20T14:37:41;94276.59;;;5.31;79.43
36192;BME280;22233;42.708;23.360;2023-01-20T14:40:20;94266.25;;;5.02;78.16
36192;BME280;22233;42.708;23.360;2023-01-20T14:43:00;94267.69;;;4.99;78.01
36192;BME280;22233;42.708;23.360;2023-01-20T14:45:28;94256.09;;;4.98;77.67
36192;BME280;22233;42.708;23.360;2023-01-20T14:47:59;94261.91;;;5.14;77.86
36192;BME280;22233;42.708;23.360;2023-01-20T14:50:25;94266.75;;;4.81;78.87